createdAt,value
2024-03-02T00:01:49.755Z,6.40
2024-03-02T00:04:16.297Z,6.50
2024-03-02T00:06:43.130Z,6.50
2024-03-02T00:09:09.932Z,6.60
2024-03-02T00:11:37.689Z,6.60
2024-03-02T00:14:04.311Z,6.70
2024-03-02T00:16:30.885Z,6.70
2024-03-02T00:18:57.812Z,6.70
2024-03-02T00:21:24.733Z,6.80
2024-03-02T00:23:53.042Z,6.80
2024-03-02T00:26:20.056Z,6.80
2024-03-02T00:28:46.592Z,6.80
2024-03-02T00:31:13.298Z,6.80
2024-03-02T00:33:41.240Z,6.80
2024-03-02T00:36:08.113Z,6.80
2024-03-02T00:38:35.023Z,6.80
2024-03-02T00:41:01.792Z,6.80
2024-03-02T00:43:28.971Z,6.70
2024-03-02T00:45:55.575Z,6.70
2024-03-02T00:48:22.165Z,6.60
2024-03-02T00:50:48.700Z,6.60
2024-03-02T00:53:15.222Z,6.60
2024-03-02T00:55:45.330Z,6.60
2024-03-02T00:58:11.939Z,6.50
2024-03-02T01:00:38.486Z,6.50
2024-03-02T01:03:05.074Z,6.50
2024-03-02T01:05:31.764Z,6.40
2024-03-02T01:07:58.443Z,6.40
2024-03-02T01:10:24.999Z,6.40
2024-03-02T01:12:52.088Z,6.40
2024-03-02T01:15:18.670Z,6.40
2024-03-02T01:17:45.236Z,6.40
2024-03-02T01:20:11.758Z,6.50
2024-03-02T01:22:38.518Z,6.40
2024-03-02T01:25:05.083Z,6.40
2024-03-02T01:27:31.668Z,6.40
2024-03-02T01:29:58.200Z,6.40
2024-03-02T01:32:24.739Z,6.40
2024-03-02T01:34:51.290Z,6.40
2024-03-02T01:37:17.820Z,6.40
2024-03-02T01:39:44.401Z,6.40
2024-03-02T01:42:11.761Z,6.40
2024-03-02T01:44:38.573Z,6.30
2024-03-02T01:47:05.196Z,6.40
2024-03-02T01:49:31.704Z,6.40
2024-03-02T01:51:58.495Z,6.40
2024-03-02T01:54:25.115Z,6.40
2024-03-02T01:56:51.741Z,6.40
2024-03-02T01:59:18.437Z,6.40
2024-03-02T02:01:45.032Z,6.50
2024-03-02T02:04:11.714Z,6.40
2024-03-02T02:06:38.341Z,6.50
2024-03-02T02:09:04.961Z,6.50
2024-03-02T02:11:31.485Z,6.50
2024-03-02T02:13:58.170Z,6.50
2024-03-02T02:16:24.755Z,6.50
2024-03-02T02:18:51.397Z,6.40
2024-03-02T02:21:18.256Z,6.40
2024-03-02T02:23:49.749Z,6.40
2024-03-02T02:26:16.335Z,6.40
2024-03-02T02:28:48.222Z,6.40
2024-03-02T02:31:14.784Z,6.30
2024-03-02T02:33:41.405Z,6.30
2024-03-02T02:36:07.957Z,6.30
2024-03-02T02:38:34.514Z,6.30
2024-03-02T02:41:01.077Z,6.30
2024-03-02T02:43:27.661Z,6.30
2024-03-02T02:45:54.265Z,6.30
2024-03-02T02:48:20.885Z,6.30
2024-03-02T02:50:47.495Z,6.30
2024-03-02T02:53:14.262Z,6.30
2024-03-02T02:55:41.650Z,6.30
2024-03-02T02:58:08.285Z,6.30
2024-03-02T03:00:35.023Z,6.30
2024-03-02T03:03:01.690Z,6.30
2024-03-02T03:05:28.480Z,6.30
2024-03-02T03:07:54.991Z,6.30
2024-03-02T03:10:23.228Z,6.30
2024-03-02T03:12:50.186Z,6.30
2024-03-02T03:15:17.712Z,6.30
2024-03-02T03:17:44.453Z,6.30
2024-03-02T03:20:11.429Z,6.40
2024-03-02T03:22:38.115Z,6.40
2024-03-02T03:25:04.782Z,6.30
2024-03-02T03:27:31.444Z,6.30
2024-03-02T03:29:58.005Z,6.40
2024-03-02T03:32:24.595Z,6.40
2024-03-02T03:34:51.188Z,6.40
2024-03-02T03:37:17.713Z,6.40
2024-03-02T03:39:44.587Z,6.40
2024-03-02T03:42:11.222Z,6.40
2024-03-02T03:44:37.818Z,6.50
2024-03-02T03:47:04.453Z,6.40
2024-03-02T03:49:31.009Z,6.50
2024-03-02T03:51:57.640Z,6.50
2024-03-02T03:54:24.247Z,6.50
2024-03-02T03:56:50.797Z,6.50
2024-03-02T03:59:17.312Z,6.50
2024-03-02T04:01:43.931Z,6.50
2024-03-02T04:04:10.502Z,6.50
2024-03-02T04:06:37.102Z,6.40
2024-03-02T04:09:04.901Z,6.40
2024-03-02T04:11:31.720Z,6.40
2024-03-02T04:13:59.124Z,6.30
2024-03-02T04:16:25.858Z,6.30
2024-03-02T04:18:52.494Z,6.30
2024-03-02T04:21:19.135Z,6.30
2024-03-02T04:23:45.699Z,6.30
2024-03-02T04:26:12.235Z,6.40
2024-03-02T04:28:38.765Z,6.30
2024-03-02T04:31:05.452Z,6.30
2024-03-02T04:33:32.171Z,6.30
2024-03-02T04:35:58.878Z,6.20
2024-03-02T04:38:25.445Z,6.20
2024-03-02T04:40:52.080Z,6.20
2024-03-02T04:43:19.330Z,6.20
2024-03-02T04:45:46.313Z,6.20
2024-03-02T04:48:13.023Z,6.20
2024-03-02T04:50:39.655Z,6.10
2024-03-02T04:53:06.228Z,6.10
2024-03-02T04:55:35.843Z,6.10
2024-03-02T04:58:02.445Z,6.10
2024-03-02T05:00:29.078Z,6.10
2024-03-02T05:02:55.650Z,6.10
2024-03-02T05:05:22.233Z,6.10
2024-03-02T05:07:48.887Z,6.10
2024-03-02T05:10:15.624Z,6.10
2024-03-02T05:12:45.515Z,6.10
2024-03-02T05:15:12.308Z,6.10
2024-03-02T05:17:38.866Z,6.00
2024-03-02T05:20:05.540Z,6.00
2024-03-02T05:22:32.065Z,6.00
2024-03-02T05:25:00.719Z,5.90
2024-03-02T05:27:27.293Z,6.00
2024-03-02T05:29:53.928Z,6.00
2024-03-02T05:32:20.445Z,5.90
2024-03-02T05:34:47.010Z,5.90
2024-03-02T05:37:13.867Z,5.90
2024-03-02T05:39:40.509Z,5.90
2024-03-02T05:42:07.192Z,5.80
2024-03-02T05:44:33.748Z,5.80
2024-03-02T05:47:00.431Z,5.80
2024-03-02T05:49:27.187Z,5.70
2024-03-02T05:51:53.983Z,5.70
2024-03-02T05:54:20.571Z,5.70
2024-03-02T05:56:47.114Z,5.70
2024-03-02T05:59:14.323Z,5.60
2024-03-02T06:01:41.223Z,5.60
2024-03-02T06:04:07.918Z,5.60
2024-03-02T06:06:34.804Z,5.60
2024-03-02T06:09:01.737Z,5.50
2024-03-02T06:11:28.363Z,5.50
2024-03-02T06:13:54.947Z,5.50
2024-03-02T06:16:21.487Z,5.50
2024-03-02T06:18:48.267Z,5.50
2024-03-02T06:21:14.888Z,5.50
2024-03-02T06:23:41.437Z,5.50
2024-03-02T06:26:07.994Z,5.50
2024-03-02T06:28:34.592Z,5.50
2024-03-02T06:31:01.278Z,5.50
2024-03-02T06:33:27.962Z,5.60
2024-03-02T06:35:54.803Z,5.60
2024-03-02T06:38:21.400Z,5.60
2024-03-02T06:40:47.963Z,5.60
2024-03-02T06:43:14.554Z,5.60
2024-03-02T06:45:41.173Z,5.60
2024-03-02T06:48:07.784Z,5.70
2024-03-02T06:50:34.428Z,5.70
2024-03-02T06:53:01.009Z,5.70
2024-03-02T06:55:27.555Z,5.70
2024-03-02T06:57:54.227Z,5.70
2024-03-02T07:00:21.478Z,5.70
2024-03-02T07:02:48.091Z,5.80
2024-03-02T07:05:14.617Z,5.80
2024-03-02T07:07:41.195Z,5.80
2024-03-02T07:10:08.461Z,5.80
2024-03-02T07:12:35.360Z,5.90
2024-03-02T07:15:04.944Z,5.90
2024-03-02T07:17:31.764Z,5.90
2024-03-02T07:19:58.394Z,5.90
2024-03-02T07:22:25.085Z,5.90
2024-03-02T07:24:51.626Z,5.90
2024-03-02T07:27:18.229Z,5.90
2024-03-02T07:29:44.868Z,5.90
2024-03-02T07:32:11.475Z,6.00
2024-03-02T07:34:38.650Z,6.00
2024-03-02T07:37:05.274Z,6.00
2024-03-02T07:39:31.950Z,6.00
2024-03-02T07:41:58.547Z,6.00
2024-03-02T07:44:25.386Z,6.00
2024-03-02T07:46:52.223Z,6.00
2024-03-02T07:49:18.962Z,6.00
2024-03-02T07:51:45.525Z,6.00
2024-03-02T07:54:12.220Z,6.10
2024-03-02T07:56:38.853Z,6.20
2024-03-02T07:59:05.422Z,6.20
2024-03-02T08:01:32.076Z,6.30
2024-03-02T08:03:59.447Z,6.30
2024-03-02T08:06:28.546Z,6.40
2024-03-02T08:08:55.478Z,6.50
2024-03-02T08:11:22.137Z,6.50
2024-03-02T08:13:48.766Z,6.60
2024-03-02T08:16:15.349Z,6.70
2024-03-02T08:18:42.051Z,6.80
2024-03-02T08:21:09.235Z,6.80
2024-03-02T08:23:35.768Z,6.90
2024-03-02T08:26:02.322Z,6.90
2024-03-02T08:28:29.030Z,7.00
2024-03-02T08:30:55.569Z,7.00
2024-03-02T08:33:22.209Z,7.10
2024-03-02T08:35:48.876Z,7.10
2024-03-02T08:38:15.458Z,7.10
2024-03-02T08:40:41.997Z,7.20
2024-03-02T08:43:08.620Z,7.40
2024-03-02T08:45:35.569Z,7.40
2024-03-02T08:48:02.363Z,7.50
2024-03-02T08:50:28.892Z,7.50
2024-03-02T08:52:55.435Z,7.50
2024-03-02T08:55:21.967Z,7.70
2024-03-02T08:57:48.602Z,7.80
2024-03-02T09:00:15.242Z,7.90
2024-03-02T09:02:41.822Z,8.10
2024-03-02T09:05:08.390Z,8.20
2024-03-02T09:07:34.961Z,8.30
2024-03-02T09:10:01.579Z,8.40
2024-03-02T09:12:28.228Z,8.50
2024-03-02T09:14:54.952Z,8.50
2024-03-02T09:17:21.496Z,8.60
2024-03-02T09:19:48.556Z,8.60
2024-03-02T09:22:15.104Z,8.60
2024-03-02T09:24:42.878Z,8.70
2024-03-02T09:27:09.803Z,8.80
2024-03-02T09:29:36.334Z,8.90
2024-03-02T09:32:02.848Z,9.00
2024-03-02T09:34:29.426Z,9.10
2024-03-02T09:36:56.060Z,9.20
2024-03-02T09:39:23.387Z,9.20
2024-03-02T09:41:49.954Z,9.40
2024-03-02T09:44:16.927Z,9.50
2024-03-02T09:46:44.918Z,9.60
2024-03-02T09:49:11.531Z,9.70
2024-03-02T09:51:38.104Z,9.80
2024-03-02T09:54:12.920Z,9.80
2024-03-02T09:56:45.033Z,9.60
2024-03-02T09:59:11.586Z,9.50
2024-03-02T10:01:38.099Z,9.50
2024-03-02T10:04:04.790Z,9.50
2024-03-02T10:06:31.367Z,9.50
2024-03-02T10:08:57.939Z,9.60
2024-03-02T10:11:24.500Z,9.70
2024-03-02T10:13:51.052Z,9.80
2024-03-02T10:16:17.607Z,9.80
2024-03-02T10:18:44.204Z,9.80
2024-03-02T10:21:10.798Z,9.90
2024-03-02T10:23:37.375Z,10.00
2024-03-02T10:26:04.243Z,10.00
2024-03-02T10:28:31.007Z,10.00
2024-03-02T10:30:57.661Z,10.00
2024-03-02T10:33:24.353Z,10.10
2024-03-02T10:35:51.112Z,10.10
2024-03-02T10:38:17.904Z,10.20
2024-03-02T10:40:44.444Z,10.20
2024-03-02T10:43:10.996Z,10.30
2024-03-02T10:45:37.616Z,10.40
2024-03-02T10:48:06.424Z,10.60
2024-03-02T10:50:32.996Z,10.70
2024-03-02T10:52:59.595Z,10.70
2024-03-02T10:55:26.466Z,10.70
2024-03-02T10:57:54.606Z,10.80
2024-03-02T11:00:25.887Z,10.90
2024-03-02T11:02:52.584Z,11.00
2024-03-02T11:05:19.138Z,11.00
2024-03-02T11:07:45.655Z,11.10
2024-03-02T11:10:12.257Z,11.10
2024-03-02T11:12:38.964Z,11.10
2024-03-02T11:15:05.556Z,11.10
2024-03-02T11:17:32.133Z,11.20
2024-03-02T11:19:58.761Z,11.30
2024-03-02T11:22:25.513Z,11.30
2024-03-02T11:24:52.809Z,11.20
2024-03-02T11:27:19.394Z,11.10
2024-03-02T11:29:45.985Z,11.10
2024-03-02T11:32:12.536Z,11.20
2024-03-02T11:34:40.364Z,11.50
2024-03-02T11:37:06.958Z,11.60
2024-03-02T11:39:33.751Z,11.70
2024-03-02T11:42:00.505Z,11.80
2024-03-02T11:44:27.070Z,11.90
2024-03-02T11:46:54.653Z,12.00
2024-03-02T11:49:21.175Z,12.00
2024-03-02T11:51:47.771Z,12.10
2024-03-02T11:54:14.326Z,12.10
2024-03-02T11:56:40.849Z,12.00
2024-03-02T11:59:07.395Z,12.00
2024-03-02T12:01:34.128Z,12.00
2024-03-02T12:04:00.919Z,12.00
2024-03-02T12:06:27.483Z,12.10
2024-03-02T12:08:54.579Z,12.20
2024-03-02T12:11:21.175Z,12.40
2024-03-02T12:13:47.745Z,12.50
2024-03-02T12:16:14.425Z,12.50
2024-03-02T12:18:42.083Z,12.60
2024-03-02T12:21:09.661Z,12.70
2024-03-02T12:23:36.205Z,12.80
2024-03-02T12:26:02.808Z,12.90
2024-03-02T12:28:30.733Z,13.00
2024-03-02T12:30:58.849Z,13.20
2024-03-02T12:33:25.605Z,13.20
2024-03-02T12:35:52.219Z,13.30
2024-03-02T12:38:18.929Z,13.30
2024-03-02T12:40:45.496Z,13.30
2024-03-02T12:43:12.102Z,13.40
2024-03-02T12:45:38.861Z,13.60
2024-03-02T12:48:05.539Z,13.80
2024-03-02T12:50:32.110Z,13.70
2024-03-02T12:52:59.667Z,13.70
2024-03-02T12:55:26.262Z,13.60
2024-03-02T12:57:53.023Z,13.60
2024-03-02T13:00:20.002Z,13.60
2024-03-02T13:02:46.561Z,13.40
2024-03-02T13:05:14.198Z,13.30
2024-03-02T13:07:41.886Z,13.20
2024-03-02T13:10:11.667Z,13.20
2024-03-02T13:12:38.738Z,13.00
2024-03-02T13:15:06.404Z,12.90
2024-03-02T13:17:37.743Z,12.70
2024-03-02T13:20:08.967Z,12.70
2024-03-02T13:22:36.007Z,12.70
2024-03-02T13:25:04.899Z,12.50
2024-03-02T13:27:33.038Z,12.30
2024-03-02T13:29:59.810Z,12.20
2024-03-02T13:32:26.962Z,12.20
2024-03-02T13:34:53.625Z,12.20
2024-03-02T13:37:20.160Z,12.10
2024-03-02T13:39:46.867Z,12.10
2024-03-02T13:42:15.526Z,12.10
2024-03-02T13:44:42.774Z,12.10
2024-03-02T13:47:09.351Z,12.00
2024-03-02T13:49:38.831Z,11.90
2024-03-02T13:52:14.122Z,12.00
2024-03-02T13:54:40.936Z,11.90
2024-03-02T13:57:07.510Z,11.90
2024-03-02T13:59:34.243Z,12.00
2024-03-02T14:02:00.880Z,12.00
2024-03-02T14:04:27.505Z,12.00
2024-03-02T14:06:54.431Z,12.10
2024-03-02T14:09:23.465Z,12.20
2024-03-02T14:11:50.623Z,12.20
2024-03-02T14:14:17.176Z,12.20
2024-03-02T14:16:43.696Z,12.10
2024-03-02T14:19:10.655Z,12.10
2024-03-02T14:21:37.303Z,12.10
2024-03-02T14:24:03.901Z,12.10
2024-03-02T14:26:30.427Z,12.10
2024-03-02T14:28:57.023Z,12.10
2024-03-02T14:31:23.644Z,12.10
2024-03-02T14:33:50.270Z,12.00
2024-03-02T14:36:16.821Z,12.10
2024-03-02T14:38:43.405Z,12.10
2024-03-02T14:41:10.239Z,12.10
2024-03-02T14:43:38.268Z,12.10
2024-03-02T14:46:04.937Z,12.00
2024-03-02T14:48:31.603Z,12.00
2024-03-02T14:50:58.172Z,12.00
2024-03-02T14:53:24.810Z,12.00
2024-03-02T14:55:51.321Z,12.00
2024-03-02T14:58:17.930Z,12.00
2024-03-02T15:00:44.651Z,12.00
2024-03-02T15:03:12.661Z,12.00
2024-03-02T15:05:39.848Z,12.00
2024-03-02T15:08:06.467Z,12.10
2024-03-02T15:10:33.020Z,12.10
2024-03-02T15:12:59.644Z,12.10
2024-03-02T15:15:26.547Z,12.10
2024-03-02T15:17:53.550Z,12.10
2024-03-02T15:20:22.696Z,12.10
2024-03-02T15:22:49.242Z,12.10
2024-03-02T15:25:17.094Z,12.00
2024-03-02T15:27:43.696Z,12.10
2024-03-02T15:30:10.269Z,12.10
2024-03-02T15:32:37.882Z,12.10
2024-03-02T15:35:04.941Z,12.10
2024-03-02T15:37:31.596Z,12.20
2024-03-02T15:39:58.143Z,12.20
2024-03-02T15:42:24.831Z,12.20
2024-03-02T15:44:51.520Z,12.20
2024-03-02T15:47:18.064Z,12.20
2024-03-02T15:49:44.635Z,12.20
2024-03-02T15:52:11.265Z,12.20
2024-03-02T15:54:37.812Z,12.20
2024-03-02T15:57:04.417Z,12.10
2024-03-02T15:59:31.300Z,12.10
2024-03-02T16:01:59.431Z,12.00
2024-03-02T16:04:26.061Z,12.00
2024-03-02T16:06:52.685Z,12.00
2024-03-02T16:09:19.240Z,11.90
2024-03-02T16:11:45.852Z,11.90
2024-03-02T16:14:12.538Z,11.90
2024-03-02T16:16:39.385Z,11.90
2024-03-02T16:19:14.023Z,11.90
2024-03-02T16:21:44.068Z,11.90
2024-03-02T16:24:10.616Z,11.90
2024-03-02T16:26:37.671Z,11.90
2024-03-02T16:29:04.226Z,11.90
2024-03-02T16:31:30.757Z,11.90
2024-03-02T16:33:57.385Z,11.90
2024-03-02T16:36:24.703Z,11.80
2024-03-02T16:38:51.719Z,11.70
2024-03-02T16:41:18.969Z,11.70
2024-03-02T16:43:46.690Z,11.60
2024-03-02T16:46:13.282Z,11.60
2024-03-02T16:48:39.868Z,11.50
2024-03-02T16:51:06.515Z,11.50
2024-03-02T16:53:33.107Z,11.40
2024-03-02T16:55:59.718Z,11.30
2024-03-02T16:58:26.288Z,11.30
2024-03-02T17:00:54.056Z,11.20
2024-03-02T17:03:20.637Z,11.20
2024-03-02T17:05:47.171Z,11.10
2024-03-02T17:08:13.744Z,11.10
2024-03-02T17:10:41.305Z,11.10
2024-03-02T17:13:08.176Z,11.00
2024-03-02T17:15:34.819Z,11.00
2024-03-02T17:18:01.391Z,10.90
2024-03-02T17:20:28.992Z,10.90
2024-03-02T17:22:55.581Z,10.90
2024-03-02T17:25:22.290Z,10.80
2024-03-02T17:27:48.952Z,10.80
2024-03-02T17:30:15.534Z,10.80
2024-03-02T17:32:42.108Z,10.80
2024-03-02T17:35:08.774Z,10.70
2024-03-02T17:37:36.718Z,10.70
2024-03-02T17:40:03.406Z,10.70
2024-03-02T17:42:30.122Z,10.60
2024-03-02T17:44:56.730Z,10.60
2024-03-02T17:47:23.352Z,10.60
2024-03-02T17:49:50.702Z,10.60
2024-03-02T17:52:17.347Z,10.60
2024-03-02T17:54:43.951Z,10.60
2024-03-02T17:57:10.517Z,10.60
2024-03-02T17:59:38.506Z,10.60
2024-03-02T18:02:05.227Z,10.60
2024-03-02T18:04:31.891Z,10.60
2024-03-02T18:06:59.607Z,10.60
2024-03-02T18:09:26.462Z,10.60
2024-03-02T18:11:53.087Z,10.60
2024-03-02T18:14:19.614Z,10.60
2024-03-02T18:16:46.221Z,10.50
2024-03-02T18:19:13.089Z,10.50
2024-03-02T18:21:39.706Z,10.50
2024-03-02T18:24:06.268Z,10.50
2024-03-02T18:26:35.238Z,10.50
2024-03-02T18:29:01.882Z,10.50
2024-03-02T18:31:28.414Z,10.50
2024-03-02T18:33:55.191Z,10.50
2024-03-02T18:36:21.833Z,10.40
2024-03-02T18:38:48.344Z,10.40
2024-03-02T18:41:15.489Z,10.40
2024-03-02T18:43:42.223Z,10.40
2024-03-02T18:46:11.074Z,10.40
2024-03-02T18:48:39.571Z,10.40
2024-03-02T18:51:06.134Z,10.40
2024-03-02T18:53:32.667Z,10.40
2024-03-02T18:55:59.236Z,10.40
2024-03-02T18:58:26.419Z,10.40
2024-03-02T19:00:53.422Z,10.40
2024-03-02T19:03:20.048Z,10.40
2024-03-02T19:05:46.602Z,10.40
2024-03-02T19:08:14.364Z,10.40
2024-03-02T19:10:40.961Z,10.40
2024-03-02T19:13:07.589Z,10.40
2024-03-02T19:15:34.248Z,10.40
2024-03-02T19:18:00.892Z,10.40
2024-03-02T19:20:27.443Z,10.40
2024-03-02T19:22:55.485Z,10.40
2024-03-02T19:25:22.249Z,10.40
2024-03-02T19:27:48.833Z,10.40
2024-03-02T19:30:15.381Z,10.30
2024-03-02T19:32:42.058Z,10.30
2024-03-02T19:35:08.633Z,10.30
2024-03-02T19:37:37.167Z,10.30
2024-03-02T19:40:05.768Z,10.30
2024-03-02T19:42:32.676Z,10.30
2024-03-02T19:44:59.193Z,10.30
2024-03-02T19:47:25.705Z,10.30
2024-03-02T19:49:52.299Z,10.30
2024-03-02T19:52:18.975Z,10.30
2024-03-02T19:54:45.657Z,10.30
2024-03-02T19:57:12.248Z,10.30
2024-03-02T19:59:39.715Z,10.30
2024-03-02T20:02:11.249Z,10.30
2024-03-02T20:04:37.990Z,10.30
2024-03-02T20:07:05.034Z,10.20
2024-03-02T20:09:31.880Z,10.20
2024-03-02T20:12:01.763Z,10.20
2024-03-02T20:14:28.305Z,10.20
2024-03-02T20:16:54.954Z,10.20
2024-03-02T20:19:22.828Z,10.20
2024-03-02T20:21:49.398Z,10.10
2024-03-02T20:24:16.035Z,10.10
2024-03-02T20:26:42.570Z,10.10
2024-03-02T20:29:09.341Z,10.10
2024-03-02T20:31:36.258Z,10.00
2024-03-02T20:34:03.388Z,10.00
2024-03-02T20:36:29.950Z,10.00
2024-03-02T20:38:56.724Z,10.00
2024-03-02T20:41:23.283Z,10.00
2024-03-02T20:43:49.890Z,10.00
2024-03-02T20:46:17.012Z,10.00
2024-03-02T20:48:44.725Z,10.00
2024-03-02T20:51:11.324Z,10.00
2024-03-02T20:53:37.880Z,10.00
2024-03-02T20:56:04.401Z,9.90
2024-03-02T20:58:31.200Z,9.90
2024-03-02T21:00:57.816Z,9.90
2024-03-02T21:03:24.397Z,9.80
2024-03-02T21:05:50.931Z,9.80
2024-03-02T21:08:17.442Z,9.80
2024-03-02T21:10:46.205Z,9.80
2024-03-02T21:13:13.751Z,9.80
2024-03-02T21:15:40.320Z,9.80
2024-03-02T21:18:06.917Z,9.70
2024-03-02T21:20:33.596Z,9.70
2024-03-02T21:23:00.166Z,9.70
2024-03-02T21:25:28.359Z,9.70
2024-03-02T21:27:55.188Z,9.70
2024-03-02T21:30:21.786Z,9.60
2024-03-02T21:32:49.620Z,9.60
2024-03-02T21:35:16.283Z,9.60
2024-03-02T21:37:44.225Z,9.60
2024-03-02T21:40:12.573Z,9.60
2024-03-02T21:42:39.187Z,9.60
2024-03-02T21:45:05.767Z,9.60
2024-03-02T21:47:32.608Z,9.60
2024-03-02T21:49:59.415Z,9.60
2024-03-02T21:52:25.981Z,9.60
2024-03-02T21:54:52.549Z,9.60
2024-03-02T21:57:22.227Z,9.60
2024-03-02T21:59:48.759Z,9.60
2024-03-02T22:02:15.352Z,9.60
2024-03-02T22:04:41.883Z,9.60
2024-03-02T22:07:08.487Z,9.60
2024-03-02T22:09:35.351Z,9.50
2024-03-02T22:12:02.282Z,9.60
2024-03-02T22:14:28.802Z,9.50
2024-03-02T22:16:55.601Z,9.60
2024-03-02T22:19:22.359Z,9.60
2024-03-02T22:21:49.590Z,9.50
2024-03-02T22:24:16.188Z,9.50
2024-03-02T22:26:42.762Z,9.50
2024-03-02T22:29:09.302Z,9.50
2024-03-02T22:31:36.073Z,9.50
2024-03-02T22:34:02.685Z,9.50
2024-03-02T22:36:29.242Z,9.50
2024-03-02T22:38:55.835Z,9.50
2024-03-02T22:41:22.414Z,9.50
2024-03-02T22:43:49.305Z,9.50
2024-03-02T22:46:16.085Z,9.40
2024-03-02T22:48:42.698Z,9.40
2024-03-02T22:51:09.238Z,9.40
2024-03-02T22:53:37.423Z,9.40
2024-03-02T22:56:05.710Z,9.40
2024-03-02T22:58:32.409Z,9.30
2024-03-02T23:00:59.252Z,9.30
2024-03-02T23:03:25.865Z,9.30
2024-03-02T23:05:52.508Z,9.30
2024-03-02T23:08:19.112Z,9.30
2024-03-02T23:10:46.417Z,9.30
2024-03-02T23:13:13.114Z,9.30
2024-03-02T23:15:39.998Z,9.30
2024-03-02T23:18:06.913Z,9.30
2024-03-02T23:20:33.445Z,9.20
2024-03-02T23:23:05.160Z,9.20
2024-03-02T23:25:31.749Z,9.20
2024-03-02T23:27:58.451Z,9.20
2024-03-02T23:30:25.998Z,9.20
2024-03-02T23:32:52.551Z,9.20
2024-03-02T23:35:19.080Z,9.10
2024-03-02T23:37:45.656Z,9.10
2024-03-02T23:40:15.360Z,9.10
2024-03-02T23:42:42.071Z,9.10
2024-03-02T23:45:08.675Z,9.10
2024-03-02T23:47:35.551Z,9.10
2024-03-02T23:50:02.164Z,9.00
2024-03-02T23:52:28.674Z,9.00
2024-03-02T23:54:55.218Z,9.00
2024-03-02T23:57:21.824Z,9.00
2024-03-02T23:59:48.716Z,9.00
